createdAt,value
2019-05-07T00:00:27.890Z,87.81
2019-05-07T00:02:56.197Z,87.89
2019-05-07T00:05:24.516Z,88.00
2019-05-07T00:07:52.826Z,88.08
2019-05-07T00:10:21.806Z,88.02
2019-05-07T00:12:52.013Z,88.12
2019-05-07T00:15:20.277Z,88.17
2019-05-07T00:17:48.876Z,88.21
2019-05-07T00:20:17.189Z,88.34
2019-05-07T00:22:45.524Z,88.40
2019-05-07T00:25:13.989Z,88.31
2019-05-07T00:27:42.761Z,88.19
2019-05-07T00:30:12.615Z,88.15
2019-05-07T00:32:42.390Z,88.21
2019-05-07T00:35:13.136Z,88.27
2019-05-07T00:37:52.358Z,88.33
2019-05-07T00:40:32.137Z,88.34
2019-05-07T00:43:04.798Z,88.41
2019-05-07T00:45:52.734Z,88.54
2019-05-07T00:48:20.598Z,88.66
2019-05-07T00:50:52.680Z,88.80
2019-05-07T00:53:20.621Z,88.96
2019-05-07T00:55:49.240Z,88.95
2019-05-07T00:58:17.529Z,89.01
2019-05-07T01:00:46.115Z,89.07
2019-05-07T01:03:14.871Z,89.17
2019-05-07T01:05:43.396Z,89.22
2019-05-07T01:08:13.201Z,89.24
2019-05-07T01:10:42.066Z,89.25
2019-05-07T01:13:12.642Z,89.20
2019-05-07T01:15:42.767Z,89.16
2019-05-07T01:18:12.342Z,89.34
2019-05-07T01:20:42.275Z,89.49
2019-05-07T01:23:13.227Z,89.56
2019-05-07T01:25:43.040Z,89.47
2019-05-07T01:28:13.260Z,89.36
2019-05-07T01:30:43.213Z,89.38
2019-05-07T01:33:19.590Z,89.51
2019-05-07T01:36:07.820Z,89.67
2019-05-07T01:38:36.130Z,89.72
2019-05-07T01:41:04.595Z,89.73
2019-05-07T01:43:32.905Z,89.71
2019-05-07T01:46:03.148Z,89.70
2019-05-07T01:48:32.372Z,89.71
2019-05-07T01:51:03.175Z,89.79
2019-05-07T01:53:32.322Z,89.95
2019-05-07T01:56:03.052Z,89.99
2019-05-07T01:58:33.145Z,89.96
2019-05-07T02:01:02.780Z,89.92
2019-05-07T02:03:52.682Z,89.93
2019-05-07T02:06:22.543Z,90.07
2019-05-07T02:08:58.429Z,90.12
2019-05-07T02:11:43.715Z,90.21
2019-05-07T02:14:13.674Z,90.17
2019-05-07T02:16:42.016Z,90.24
2019-05-07T02:19:12.507Z,90.26
2019-05-07T02:21:42.272Z,90.36
2019-05-07T02:24:12.440Z,90.40
2019-05-07T02:26:42.537Z,90.42
2019-05-07T02:29:12.225Z,90.36
2019-05-07T02:31:43.763Z,90.28
2019-05-07T02:34:13.778Z,90.22
2019-05-07T02:36:43.294Z,90.24
2019-05-07T02:39:13.107Z,90.25
2019-05-07T02:41:44.093Z,90.39
2019-05-07T02:44:14.095Z,90.42
2019-05-07T02:46:58.686Z,90.39
2019-05-07T02:49:37.621Z,90.49
2019-05-07T02:52:16.550Z,90.42
2019-05-07T02:54:46.509Z,90.36
2019-05-07T02:57:16.999Z,90.39
2019-05-07T02:59:45.179Z,90.37
2019-05-07T03:02:14.041Z,90.41
2019-05-07T03:04:43.627Z,90.57
2019-05-07T03:07:13.153Z,90.59
2019-05-07T03:09:43.122Z,90.51
2019-05-07T03:12:13.165Z,90.35
2019-05-07T03:14:43.808Z,90.12
2019-05-07T03:17:13.263Z,90.02
2019-05-07T03:19:43.555Z,90.00
2019-05-07T03:22:13.994Z,89.99
2019-05-07T03:24:49.122Z,90.01
2019-05-07T03:27:17.745Z,90.02
2019-05-07T03:29:47.692Z,90.12
2019-05-07T03:32:29.499Z,90.17
2019-05-07T03:35:06.026Z,90.11
2019-05-07T03:37:35.249Z,90.10
2019-05-07T03:40:03.789Z,90.15
2019-05-07T03:42:33.503Z,90.29
2019-05-07T03:45:03.958Z,90.29
2019-05-07T03:47:44.051Z,90.17
2019-05-07T03:50:14.616Z,90.11
2019-05-07T03:52:43.313Z,90.23
2019-05-07T03:55:14.596Z,90.26
2019-05-07T03:57:43.575Z,90.25
2019-05-07T04:00:13.535Z,90.29
2019-05-07T04:02:43.814Z,90.45
2019-05-07T04:05:14.042Z,90.49
2019-05-07T04:07:43.036Z,90.43
2019-05-07T04:10:14.603Z,90.40
2019-05-07T04:12:44.076Z,90.42
2019-05-07T04:15:14.528Z,90.45
2019-05-07T04:17:43.130Z,90.38
2019-05-07T04:20:13.490Z,90.37
2019-05-07T04:22:43.117Z,90.36
2019-05-07T04:25:23.948Z,90.37
2019-05-07T04:28:03.983Z,90.37
2019-05-07T04:30:33.278Z,90.27
2019-05-07T04:33:03.653Z,90.09
2019-05-07T04:35:43.035Z,89.84
2019-05-07T04:38:09.851Z,89.71
2019-05-07T04:40:38.146Z,89.81
2019-05-07T04:43:06.694Z,89.86
2019-05-07T04:45:35.159Z,89.86
2019-05-07T04:48:03.482Z,89.88
2019-05-07T04:50:42.758Z,89.90
2019-05-07T04:53:03.787Z,89.76
2019-05-07T04:55:33.489Z,89.65
2019-05-07T04:58:03.418Z,89.68
2019-05-07T05:00:33.586Z,89.50
2019-05-07T05:03:06.389Z,89.33
2019-05-07T05:05:34.860Z,89.23
2019-05-07T05:08:03.867Z,89.00
2019-05-07T05:10:33.658Z,88.86
2019-05-07T05:13:03.146Z,88.79
2019-05-07T05:15:32.245Z,88.91
2019-05-07T05:18:02.693Z,89.03
2019-05-07T05:20:33.643Z,89.16
2019-05-07T05:23:15.694Z,89.27
2019-05-07T05:25:44.067Z,89.21
2019-05-07T05:28:13.388Z,89.23
2019-05-07T05:30:56.761Z,89.28
2019-05-07T05:33:25.073Z,89.31
2019-05-07T05:35:53.420Z,89.30
2019-05-07T05:38:22.289Z,89.12
2019-05-07T05:40:52.133Z,88.98
2019-05-07T05:43:37.390Z,88.89
2019-05-07T05:46:07.424Z,88.77
2019-05-07T05:48:35.734Z,88.63
2019-05-07T05:51:05.793Z,88.49
2019-05-07T05:53:45.018Z,88.40
2019-05-07T05:56:32.265Z,88.23
2019-05-07T05:59:12.140Z,87.82
2019-05-07T06:04:44.801Z,86.88
2019-05-07T06:07:17.780Z,86.51
2019-05-07T06:09:47.729Z,86.15
2019-05-07T06:12:34.169Z,85.40
2019-05-07T06:15:22.085Z,84.41
2019-05-07T06:18:17.662Z,83.89
2019-05-07T06:20:35.087Z,83.86
2019-05-07T06:23:22.514Z,84.09
2019-05-07T06:25:52.303Z,84.00
2019-05-07T06:28:22.376Z,83.52
2019-05-07T06:30:52.691Z,83.09
2019-05-07T06:33:23.014Z,82.83
2019-05-07T06:35:52.036Z,82.86
2019-05-07T06:38:22.034Z,82.76
2019-05-07T06:41:07.728Z,82.67
2019-05-07T06:43:42.173Z,82.34
2019-05-07T06:46:12.540Z,82.10
2019-05-07T06:48:43.720Z,81.75
2019-05-07T06:51:12.598Z,81.73
2019-05-07T06:53:42.216Z,82.10
2019-05-07T06:56:12.228Z,82.00
2019-05-07T06:58:42.473Z,81.09
2019-05-07T07:01:14.878Z,80.61
2019-05-07T07:04:03.279Z,80.35
2019-05-07T07:06:33.490Z,80.15
2019-05-07T07:09:03.447Z,79.96
2019-05-07T07:11:33.426Z,79.44
2019-05-07T07:14:02.614Z,79.68
2019-05-07T07:16:32.597Z,79.92
2019-05-07T07:19:03.150Z,79.67
2019-05-07T07:21:32.702Z,79.27
2019-05-07T07:24:03.040Z,78.43
2019-05-07T07:26:32.790Z,78.37
2019-05-07T07:29:01.993Z,77.28
2019-05-07T07:31:34.869Z,76.74
2019-05-07T07:34:04.572Z,75.68
2019-05-07T07:36:34.501Z,74.67
2019-05-07T07:39:03.387Z,73.75
2019-05-07T07:41:39.331Z,72.83
2019-05-07T07:44:07.909Z,72.77
2019-05-07T07:46:36.590Z,72.36
2019-05-07T07:49:11.089Z,71.95
2019-05-07T07:51:41.521Z,71.75
2019-05-07T07:54:05.396Z,71.49
2019-05-07T07:56:48.981Z,70.52
2019-05-07T07:59:12.840Z,70.70
2019-05-07T08:01:52.470Z,69.98
2019-05-07T08:04:22.882Z,70.16
2019-05-07T08:06:52.538Z,69.02
2019-05-07T08:09:24.016Z,69.33
2019-05-07T08:11:52.715Z,69.44
2019-05-07T08:14:21.985Z,68.32
2019-05-07T08:16:52.771Z,68.01
2019-05-07T08:19:24.393Z,67.83
2019-05-07T08:21:52.124Z,66.84
2019-05-07T08:24:22.547Z,67.05
2019-05-07T08:26:51.891Z,66.10
2019-05-07T08:29:22.361Z,64.71
2019-05-07T08:32:02.315Z,63.20
2019-05-07T08:34:38.610Z,63.03
2019-05-07T08:37:06.908Z,63.24
2019-05-07T08:39:35.260Z,61.95
2019-05-07T08:42:04.116Z,61.96
2019-05-07T08:44:45.880Z,62.00
2019-05-07T08:47:24.967Z,61.77
2019-05-07T08:49:53.279Z,61.34
2019-05-07T08:52:22.345Z,61.46
2019-05-07T08:54:51.901Z,61.51
2019-05-07T08:57:22.562Z,61.58
2019-05-07T08:59:58.495Z,61.21
2019-05-07T09:02:22.206Z,61.15
2019-05-07T09:04:52.338Z,61.32
2019-05-07T09:07:21.853Z,60.77
2019-05-07T09:09:52.373Z,59.87
2019-05-07T09:12:22.711Z,59.08
2019-05-07T09:14:52.702Z,58.92
2019-05-07T09:17:22.763Z,59.71
2019-05-07T09:19:53.991Z,60.66
2019-05-07T09:22:22.892Z,59.56
2019-05-07T09:24:52.584Z,60.56
2019-05-07T09:27:23.039Z,59.27
2019-05-07T09:30:02.701Z,58.57
2019-05-07T09:32:42.517Z,58.56
2019-05-07T09:35:18.790Z,58.55
2019-05-07T09:37:47.112Z,56.11
2019-05-07T09:40:15.596Z,54.74
2019-05-07T09:42:43.904Z,54.90
2019-05-07T09:45:12.559Z,54.48
2019-05-07T09:47:41.803Z,54.14
2019-05-07T09:50:11.855Z,53.77
2019-05-07T09:52:42.525Z,52.55
2019-05-07T09:55:16.367Z,52.22
2019-05-07T09:57:42.459Z,52.43
2019-05-07T10:00:12.337Z,52.34
2019-05-07T10:02:42.531Z,52.85
2019-05-07T10:05:11.651Z,52.87
2019-05-07T10:07:42.201Z,52.97
2019-05-07T10:10:12.009Z,53.16
2019-05-07T10:12:44.969Z,50.69
2019-05-07T10:15:13.837Z,49.08
2019-05-07T10:17:43.852Z,49.16
2019-05-07T10:20:21.539Z,49.55
2019-05-07T10:22:42.959Z,47.44
2019-05-07T10:25:12.171Z,48.64
2019-05-07T10:27:41.889Z,49.83
2019-05-07T10:30:12.632Z,49.63
2019-05-07T10:32:42.112Z,48.68
2019-05-07T10:35:12.804Z,48.29
2019-05-07T10:37:42.331Z,47.31
2019-05-07T10:40:12.248Z,47.37
2019-05-07T10:42:42.818Z,47.80
2019-05-07T10:45:14.501Z,48.84
2019-05-07T10:47:52.013Z,48.51
2019-05-07T10:50:36.463Z,48.33
2019-05-07T10:52:58.014Z,49.37
2019-05-07T10:55:26.345Z,50.36
2019-05-07T10:57:54.702Z,49.66
2019-05-07T11:00:25.209Z,50.17
2019-05-07T11:02:53.505Z,51.72
2019-05-07T11:05:22.069Z,51.67
2019-05-07T11:07:50.388Z,52.22
2019-05-07T11:10:18.799Z,51.56
2019-05-07T11:12:47.100Z,50.78
2019-05-07T11:15:15.792Z,50.17
2019-05-07T11:17:52.215Z,50.08
2019-05-07T11:20:22.505Z,49.04
2019-05-07T11:22:52.213Z,48.36
2019-05-07T11:25:22.551Z,48.27
2019-05-07T11:27:52.422Z,49.77
2019-05-07T11:30:22.853Z,50.21
2019-05-07T11:32:52.208Z,49.26
2019-05-07T11:35:22.979Z,49.56
2019-05-07T11:37:52.029Z,49.58
2019-05-07T11:40:22.935Z,48.42
2019-05-07T11:42:59.195Z,48.27
2019-05-07T11:45:38.051Z,46.83
2019-05-07T11:48:06.372Z,47.00
2019-05-07T11:50:36.610Z,47.87
2019-05-07T11:53:12.347Z,47.49
2019-05-07T11:55:42.084Z,47.40
2019-05-07T11:58:12.642Z,47.41
2019-05-07T12:00:45.921Z,45.68
2019-05-07T12:03:14.581Z,43.99
2019-05-07T12:05:42.889Z,43.01
2019-05-07T12:08:13.068Z,43.26
2019-05-07T12:10:41.238Z,44.67
2019-05-07T12:13:09.840Z,45.08
2019-05-07T12:15:38.568Z,44.73
2019-05-07T12:18:06.854Z,45.33
2019-05-07T12:20:35.232Z,45.10
2019-05-07T12:23:03.537Z,45.88
2019-05-07T12:25:34.270Z,45.79
2019-05-07T12:28:02.610Z,45.51
2019-05-07T12:30:47.390Z,44.59
2019-05-07T12:33:20.289Z,45.17
2019-05-07T12:35:48.621Z,46.00
2019-05-07T12:38:16.951Z,46.54
2019-05-07T12:40:45.364Z,47.52
2019-05-07T12:43:13.684Z,48.64
2019-05-07T12:45:42.198Z,48.98
2019-05-07T12:48:12.180Z,48.80
2019-05-07T12:50:40.536Z,49.55
2019-05-07T12:53:28.768Z,50.88
2019-05-07T12:55:58.712Z,51.00
2019-05-07T12:58:27.546Z,51.16
2019-05-07T13:00:57.488Z,51.34
2019-05-07T13:03:39.519Z,51.29
2019-05-07T13:06:07.888Z,52.07
2019-05-07T13:08:36.191Z,51.32
2019-05-07T13:11:04.675Z,50.38
2019-05-07T13:13:32.968Z,50.75
2019-05-07T13:16:02.905Z,50.41
2019-05-07T13:18:31.915Z,50.58
2019-05-07T13:21:02.205Z,49.96
2019-05-07T13:23:31.844Z,48.72
2019-05-07T13:26:02.362Z,48.66
2019-05-07T13:28:30.822Z,48.71
2019-05-07T13:30:59.422Z,47.99
2019-05-07T13:33:27.922Z,47.32
2019-05-07T13:35:56.235Z,47.22
2019-05-07T13:38:29.305Z,46.27
2019-05-07T13:41:08.180Z,46.73
2019-05-07T13:43:41.029Z,46.40
2019-05-07T13:46:12.091Z,46.04
2019-05-07T13:48:45.494Z,45.69
2019-05-07T13:51:13.023Z,44.99
2019-05-07T13:53:42.798Z,45.21
2019-05-07T13:56:12.845Z,45.79
2019-05-07T13:58:42.846Z,45.52
2019-05-07T14:01:15.615Z,45.25
2019-05-07T14:03:43.988Z,45.75
2019-05-07T14:06:16.530Z,45.95
2019-05-07T14:08:45.114Z,46.38
2019-05-07T14:11:14.344Z,46.86
2019-05-07T14:13:43.631Z,46.45
2019-05-07T14:16:15.231Z,45.65
2019-05-07T14:18:43.608Z,45.90
2019-05-07T14:21:13.037Z,46.09
2019-05-07T14:23:42.758Z,45.19
2019-05-07T14:26:11.245Z,44.90
2019-05-07T14:28:42.158Z,44.71
2019-05-07T14:31:12.150Z,43.76
2019-05-07T14:33:41.640Z,42.40
2019-05-07T14:36:11.982Z,43.54
2019-05-07T14:38:42.645Z,43.76
2019-05-07T14:41:12.996Z,43.23
2019-05-07T14:43:43.246Z,43.53
2019-05-07T14:46:11.997Z,42.96
2019-05-07T14:48:41.910Z,43.31
2019-05-07T14:51:12.677Z,43.46
2019-05-07T14:53:41.849Z,42.43
2019-05-07T14:56:11.843Z,42.30
2019-05-07T14:58:42.261Z,42.02
2019-05-07T15:01:11.765Z,42.10
2019-05-07T15:03:42.247Z,42.72
2019-05-07T15:06:12.472Z,41.40
2019-05-07T15:08:40.362Z,41.16
2019-05-07T15:11:08.734Z,41.22
2019-05-07T15:13:37.127Z,41.11
2019-05-07T15:16:05.768Z,42.73
2019-05-07T15:18:42.470Z,43.36
2019-05-07T15:21:12.335Z,42.62
2019-05-07T15:23:42.479Z,42.25
2019-05-07T15:26:12.839Z,41.52
2019-05-07T15:28:43.010Z,41.84
2019-05-07T15:31:21.986Z,42.10
2019-05-07T15:33:52.162Z,42.09
2019-05-07T15:36:20.354Z,41.92
2019-05-07T15:38:48.657Z,41.56
2019-05-07T15:41:17.043Z,41.78
2019-05-07T15:43:46.256Z,41.52
2019-05-07T15:46:14.734Z,42.40
2019-05-07T15:48:43.025Z,43.25
2019-05-07T15:51:11.974Z,42.41
2019-05-07T15:53:42.767Z,42.11
2019-05-07T15:56:12.442Z,43.30
2019-05-07T15:58:42.588Z,44.00
2019-05-07T16:01:12.817Z,43.99
2019-05-07T16:03:43.373Z,42.92
2019-05-07T16:06:12.666Z,42.61
2019-05-07T16:08:48.753Z,42.14
2019-05-07T16:11:15.456Z,42.26
2019-05-07T16:13:45.416Z,43.21
2019-05-07T16:16:13.712Z,44.00
2019-05-07T16:19:01.770Z,44.94
2019-05-07T16:21:29.695Z,45.91
2019-05-07T16:23:58.247Z,45.92
2019-05-07T16:26:26.642Z,46.73
2019-05-07T16:28:54.945Z,46.39
2019-05-07T16:31:24.696Z,45.88
2019-05-07T16:33:53.215Z,46.78
2019-05-07T16:36:22.030Z,47.93
2019-05-07T16:38:52.512Z,48.14
2019-05-07T16:41:22.303Z,48.41
2019-05-07T16:43:52.468Z,47.95
2019-05-07T16:46:22.423Z,47.60
2019-05-07T16:48:50.836Z,47.10
2019-05-07T16:51:19.262Z,46.09
2019-05-07T16:53:47.613Z,46.12
2019-05-07T16:56:16.276Z,46.08
2019-05-07T16:58:46.209Z,45.45
2019-05-07T17:01:16.001Z,45.68
2019-05-07T17:03:45.960Z,46.93
2019-05-07T17:06:14.615Z,46.96
2019-05-07T17:08:46.984Z,46.66
2019-05-07T17:11:15.517Z,46.77
2019-05-07T17:13:43.817Z,47.26
2019-05-07T17:16:12.529Z,46.46
2019-05-07T17:18:40.842Z,46.02
2019-05-07T17:21:09.135Z,46.83
2019-05-07T17:23:44.024Z,47.38
2019-05-07T17:26:07.542Z,47.00
2019-05-07T17:28:35.837Z,46.68
2019-05-07T17:31:04.426Z,47.05
2019-05-07T17:33:32.725Z,47.99
2019-05-07T17:36:02.431Z,46.67
2019-05-07T17:38:32.251Z,46.78
2019-05-07T17:41:10.904Z,47.24
2019-05-07T17:43:32.480Z,47.78
2019-05-07T17:46:02.789Z,47.16
2019-05-07T17:48:32.296Z,48.43
2019-05-07T17:51:08.680Z,48.11
2019-05-07T17:53:37.467Z,48.19
2019-05-07T17:56:05.786Z,48.52
2019-05-07T17:58:34.091Z,49.17
2019-05-07T18:01:04.053Z,49.44
2019-05-07T18:03:36.531Z,49.14
2019-05-07T18:06:05.185Z,48.99
2019-05-07T18:08:33.875Z,49.68
2019-05-07T18:11:02.615Z,50.42
2019-05-07T18:13:32.653Z,51.25
2019-05-07T18:16:02.983Z,51.57
2019-05-07T18:18:32.783Z,51.77
2019-05-07T18:21:02.219Z,52.37
2019-05-07T18:23:32.135Z,52.86
2019-05-07T18:26:00.771Z,53.40
2019-05-07T18:28:29.934Z,53.64
2019-05-07T18:30:59.129Z,54.09
2019-05-07T18:33:33.634Z,54.30
2019-05-07T18:36:02.830Z,55.02
2019-05-07T18:38:32.873Z,55.32
2019-05-07T18:41:02.712Z,55.75
2019-05-07T18:43:32.963Z,55.89
2019-05-07T18:46:02.350Z,56.72
2019-05-07T18:48:30.889Z,57.21
2019-05-07T18:50:59.198Z,57.66
2019-05-07T18:53:27.553Z,58.01
2019-05-07T18:55:55.889Z,58.62
2019-05-07T18:58:24.488Z,59.07
2019-05-07T19:00:54.438Z,59.48
2019-05-07T19:03:25.234Z,59.87
2019-05-07T19:05:52.779Z,60.02
2019-05-07T19:08:22.957Z,60.34
2019-05-07T19:10:52.281Z,60.42
2019-05-07T19:13:22.160Z,60.77
2019-05-07T19:15:52.737Z,61.11
2019-05-07T19:18:22.803Z,61.51
2019-05-07T19:20:53.009Z,61.84
2019-05-07T19:23:22.350Z,62.27
2019-05-07T19:25:52.330Z,62.68
2019-05-07T19:28:22.484Z,63.32
2019-05-07T19:30:52.810Z,63.56
2019-05-07T19:33:26.176Z,63.81
2019-05-07T19:35:52.750Z,64.16
2019-05-07T19:38:21.386Z,64.56
2019-05-07T19:40:52.654Z,64.50
2019-05-07T19:43:20.529Z,64.79
2019-05-07T19:45:48.826Z,65.14
2019-05-07T19:48:17.554Z,65.49
2019-05-07T19:50:45.958Z,65.50
2019-05-07T19:53:14.272Z,65.39
2019-05-07T19:55:45.511Z,65.98
2019-05-07T19:58:13.834Z,66.27
2019-05-07T20:00:45.298Z,66.46
2019-05-07T20:03:13.143Z,66.69
2019-05-07T20:05:41.987Z,66.90
2019-05-07T20:08:12.047Z,66.96
2019-05-07T20:10:42.297Z,67.10
2019-05-07T20:13:12.476Z,67.32
2019-05-07T20:15:42.674Z,67.63
2019-05-07T20:18:12.448Z,67.99
2019-05-07T20:20:42.416Z,68.24
2019-05-07T20:23:12.012Z,68.38
2019-05-07T20:25:42.023Z,68.73
2019-05-07T20:28:12.722Z,69.08
2019-05-07T20:30:41.813Z,69.42
2019-05-07T20:33:10.178Z,69.64
2019-05-07T20:35:41.309Z,69.63
2019-05-07T20:38:08.786Z,69.64
2019-05-07T20:40:37.471Z,69.79
2019-05-07T20:43:06.035Z,69.96
2019-05-07T20:45:34.377Z,70.06
2019-05-07T20:48:02.698Z,70.33
2019-05-07T20:50:33.109Z,70.58
2019-05-07T20:53:02.032Z,70.68
2019-05-07T20:55:33.964Z,70.58
2019-05-07T20:58:03.203Z,70.67
2019-05-07T21:00:32.688Z,70.76
2019-05-07T21:03:19.817Z,70.98
2019-05-07T21:05:53.303Z,70.89
2019-05-07T21:08:22.796Z,71.27
2019-05-07T21:10:53.486Z,71.61
2019-05-07T21:13:28.500Z,71.90
2019-05-07T21:15:52.632Z,71.93
2019-05-07T21:18:23.223Z,72.13
2019-05-07T21:20:52.937Z,72.35
2019-05-07T21:23:23.035Z,72.64
2019-05-07T21:25:52.851Z,72.76
2019-05-07T21:28:21.475Z,72.86
2019-05-07T21:30:52.133Z,72.90
2019-05-07T21:33:22.589Z,72.91
2019-05-07T21:35:52.368Z,72.96
2019-05-07T21:38:22.335Z,73.13
2019-05-07T21:40:50.920Z,73.28
2019-05-07T21:43:19.227Z,73.15
2019-05-07T21:45:47.537Z,73.12
2019-05-07T21:48:15.846Z,72.97
2019-05-07T21:50:44.148Z,73.08
2019-05-07T21:53:23.127Z,73.36
2019-05-07T21:56:12.365Z,73.46
2019-05-07T21:58:45.628Z,73.73
2019-05-07T22:01:18.566Z,74.04
2019-05-07T22:03:48.541Z,74.13
2019-05-07T22:06:16.922Z,74.29
2019-05-07T22:08:45.221Z,74.47
2019-05-07T22:11:13.540Z,74.46
2019-05-07T22:13:43.539Z,74.72
2019-05-07T22:16:12.972Z,74.75
2019-05-07T22:18:42.655Z,74.97
2019-05-07T22:21:12.532Z,74.93
2019-05-07T22:23:42.757Z,75.15
2019-05-07T22:26:20.221Z,75.26
2019-05-07T22:28:42.025Z,75.37
2019-05-07T22:31:18.364Z,75.45
2019-05-07T22:33:52.651Z,75.54
2019-05-07T22:36:21.987Z,75.53
2019-05-07T22:38:52.479Z,75.62
2019-05-07T22:41:22.393Z,75.82
2019-05-07T22:43:50.890Z,75.92
2019-05-07T22:46:19.193Z,76.15
2019-05-07T22:48:47.757Z,76.39
2019-05-07T22:51:16.052Z,76.58
2019-05-07T22:53:44.363Z,76.57
2019-05-07T22:56:14.112Z,76.48
2019-05-07T22:58:44.208Z,76.61
2019-05-07T23:01:14.141Z,76.67
2019-05-07T23:03:43.073Z,76.91
2019-05-07T23:06:12.261Z,77.22
2019-05-07T23:08:42.418Z,77.41
2019-05-07T23:11:12.278Z,77.51
2019-05-07T23:13:42.671Z,77.41
2019-05-07T23:16:12.509Z,77.51
2019-05-07T23:18:42.836Z,77.50
2019-05-07T23:21:11.514Z,77.52
2019-05-07T23:23:42.016Z,77.55
2019-05-07T23:26:14.314Z,77.89
2019-05-07T23:28:41.882Z,78.04
2019-05-07T23:31:12.058Z,77.94
2019-05-07T23:33:40.313Z,77.93
2019-05-07T23:36:08.618Z,77.94
2019-05-07T23:38:36.919Z,77.95
2019-05-07T23:41:23.133Z,77.97
2019-05-07T23:44:12.551Z,78.08
2019-05-07T23:46:44.387Z,78.35
2019-05-07T23:49:12.426Z,78.34
2019-05-07T23:51:42.123Z,78.31
2019-05-07T23:54:12.212Z,78.15
2019-05-07T23:56:42.752Z,77.99
2019-05-07T23:59:12.775Z,78.46
